createdAt,value
2023-03-15T00:00:09.003Z,942.17
2023-03-15T00:01:08.979Z,942.20
2023-03-15T00:02:09.041Z,942.22
2023-03-15T00:03:08.948Z,942.23
2023-03-15T00:04:08.941Z,942.20
2023-03-15T00:05:08.931Z,942.26
2023-03-15T00:06:08.937Z,942.20
2023-03-15T00:07:08.926Z,942.23
2023-03-15T00:08:08.902Z,942.25
2023-03-15T00:09:08.884Z,942.31
2023-03-15T00:10:08.877Z,942.28
2023-03-15T00:11:08.859Z,942.28
2023-03-15T00:12:08.875Z,942.30
2023-03-15T00:13:08.852Z,942.30
2023-03-15T00:14:08.830Z,942.33
2023-03-15T00:15:08.838Z,942.39
2023-03-15T00:16:08.869Z,942.30
2023-03-15T00:17:08.785Z,942.40
2023-03-15T00:18:08.819Z,942.37
2023-03-15T00:19:08.767Z,942.39
2023-03-15T00:20:08.763Z,942.42
2023-03-15T00:21:08.738Z,942.41
2023-03-15T00:22:08.749Z,942.43
2023-03-15T00:23:08.736Z,942.43
2023-03-15T00:24:08.724Z,942.47
2023-03-15T00:25:08.695Z,942.47
2023-03-15T00:26:08.695Z,942.51
2023-03-15T00:27:08.671Z,942.54
2023-03-15T00:28:08.712Z,942.54
2023-03-15T00:29:08.709Z,942.52
2023-03-15T00:30:08.667Z,942.50
2023-03-15T00:31:08.652Z,942.52
2023-03-15T00:32:08.649Z,942.54
2023-03-15T00:33:08.629Z,942.56
2023-03-15T00:34:08.627Z,942.55
2023-03-15T00:35:08.586Z,942.58
2023-03-15T00:36:08.819Z,942.55
2023-03-15T00:37:08.574Z,942.61
2023-03-15T00:38:08.578Z,942.58
2023-03-15T00:39:08.544Z,942.62
2023-03-15T00:40:08.542Z,942.60
2023-03-15T00:41:08.514Z,942.57
2023-03-15T00:42:08.526Z,942.64
2023-03-15T00:43:08.503Z,942.65
2023-03-15T00:44:08.510Z,942.63
2023-03-15T00:45:08.487Z,942.58
2023-03-15T00:46:08.541Z,942.58
2023-03-15T00:47:08.450Z,942.57
2023-03-15T00:48:08.453Z,942.60
2023-03-15T00:49:08.422Z,942.56
2023-03-15T00:50:08.455Z,942.61
2023-03-15T00:51:08.427Z,942.59
2023-03-15T00:52:08.418Z,942.61
2023-03-15T00:53:10.026Z,942.61
2023-03-15T00:54:08.390Z,942.63
2023-03-15T00:55:08.358Z,942.63
2023-03-15T00:56:08.361Z,942.64
2023-03-15T00:57:08.358Z,942.66
2023-03-15T00:58:08.333Z,942.68
2023-03-15T00:59:08.349Z,942.69
2023-03-15T01:00:08.321Z,942.73
2023-03-15T01:01:08.290Z,942.71
2023-03-15T01:02:08.357Z,942.74
2023-03-15T01:03:08.312Z,942.73
2023-03-15T01:04:08.269Z,942.69
2023-03-15T01:05:08.257Z,942.75
2023-03-15T01:06:08.265Z,942.74
2023-03-15T01:07:08.265Z,942.72
2023-03-15T01:08:08.217Z,942.78
2023-03-15T01:09:08.208Z,942.79
2023-03-15T01:10:08.230Z,942.79
2023-03-15T01:11:08.178Z,942.85
2023-03-15T01:12:08.198Z,942.84
2023-03-15T01:13:08.152Z,942.81
2023-03-15T01:14:08.151Z,942.81
2023-03-15T01:15:08.133Z,942.82
2023-03-15T01:16:08.268Z,942.84
2023-03-15T01:17:08.152Z,942.83
2023-03-15T01:18:08.119Z,942.85
2023-03-15T01:19:08.084Z,942.86
2023-03-15T01:20:08.080Z,942.92
2023-03-15T01:21:08.068Z,942.88
2023-03-15T01:22:08.099Z,942.93
2023-03-15T01:23:08.043Z,942.95
2023-03-15T01:24:08.062Z,942.89
2023-03-15T01:25:08.039Z,942.96
2023-03-15T01:26:08.033Z,942.96
2023-03-15T01:27:08.003Z,942.96
2023-03-15T01:28:08.056Z,942.93
2023-03-15T01:29:08.004Z,942.99
2023-03-15T01:30:07.979Z,942.96
2023-03-15T01:31:07.993Z,942.95
2023-03-15T01:32:07.970Z,942.98
2023-03-15T01:33:07.933Z,942.94
2023-03-15T01:34:07.946Z,942.96
2023-03-15T01:35:07.911Z,942.96
2023-03-15T01:36:07.950Z,942.97
2023-03-15T01:37:07.915Z,942.93
2023-03-15T01:38:07.904Z,942.97
2023-03-15T01:39:07.878Z,942.93
2023-03-15T01:40:07.856Z,942.97
2023-03-15T01:41:07.857Z,942.94
2023-03-15T01:42:07.844Z,943.03
2023-03-15T01:43:07.812Z,943.04
2023-03-15T01:44:07.829Z,943.05
2023-03-15T01:45:07.792Z,943.04
2023-03-15T01:46:07.789Z,943.02
2023-03-15T01:47:07.837Z,942.96
2023-03-15T01:48:07.792Z,943.02
2023-03-15T01:49:07.746Z,943.05
2023-03-15T01:50:07.743Z,943.05
2023-03-15T01:51:07.733Z,943.00
2023-03-15T01:52:07.725Z,943.05
2023-03-15T01:53:07.722Z,943.03
2023-03-15T01:54:07.731Z,943.00
2023-03-15T01:55:07.681Z,943.03
2023-03-15T01:56:07.675Z,943.03
2023-03-15T01:57:07.675Z,943.01
2023-03-15T01:58:07.651Z,943.03
2023-03-15T01:59:07.636Z,943.07
2023-03-15T02:00:07.656Z,943.07
2023-03-15T02:01:07.663Z,943.07
2023-03-15T02:02:07.672Z,943.04
2023-03-15T02:03:07.622Z,943.09
2023-03-15T02:04:07.580Z,943.13
2023-03-15T02:05:07.576Z,943.06
2023-03-15T02:06:07.565Z,943.05
2023-03-15T02:07:07.559Z,943.05
2023-03-15T02:08:07.554Z,943.06
2023-03-15T02:09:07.527Z,943.07
2023-03-15T02:10:07.533Z,943.08
2023-03-15T02:11:07.510Z,943.13
2023-03-15T02:12:07.516Z,943.08
2023-03-15T02:13:07.505Z,943.12
2023-03-15T02:14:07.468Z,943.12
2023-03-15T02:15:07.464Z,943.18
2023-03-15T02:16:07.503Z,943.16
2023-03-15T02:17:07.479Z,943.19
2023-03-15T02:18:07.475Z,943.18
2023-03-15T02:19:07.420Z,943.14
2023-03-15T02:20:07.400Z,943.17
2023-03-15T02:21:07.393Z,943.18
2023-03-15T02:22:07.399Z,943.19
2023-03-15T02:23:07.382Z,943.19
2023-03-15T02:24:07.362Z,943.18
2023-03-15T02:25:07.348Z,943.16
2023-03-15T02:26:07.354Z,943.14
2023-03-15T02:27:07.376Z,943.12
2023-03-15T02:28:07.342Z,943.11
2023-03-15T02:29:07.309Z,943.09
2023-03-15T02:30:07.352Z,943.10
2023-03-15T02:31:07.316Z,943.11
2023-03-15T02:32:07.333Z,943.09
2023-03-15T02:33:07.257Z,943.14
2023-03-15T02:34:07.251Z,943.15
2023-03-15T02:35:07.245Z,943.19
2023-03-15T02:36:07.283Z,943.22
2023-03-15T02:37:07.214Z,943.25
2023-03-15T02:38:07.199Z,943.35
2023-03-15T02:39:07.202Z,943.45
2023-03-15T02:40:07.196Z,943.47
2023-03-15T02:41:07.197Z,943.48
2023-03-15T02:42:07.275Z,943.54
2023-03-15T02:43:07.166Z,943.56
2023-03-15T02:44:07.132Z,943.51
2023-03-15T02:45:07.145Z,943.52
2023-03-15T02:46:07.158Z,943.47
2023-03-15T02:47:07.127Z,943.46
2023-03-15T02:48:07.096Z,943.42
2023-03-15T02:49:07.083Z,943.44
2023-03-15T02:50:07.072Z,943.46
2023-03-15T02:51:07.085Z,943.47
2023-03-15T02:52:07.050Z,943.44
2023-03-15T02:53:07.050Z,943.43
2023-03-15T02:54:07.030Z,943.47
2023-03-15T02:55:07.047Z,943.48
2023-03-15T02:56:07.001Z,943.51
2023-03-15T02:57:07.000Z,943.49
2023-03-15T02:58:07.005Z,943.55
2023-03-15T02:59:07.013Z,943.54
2023-03-15T03:00:06.977Z,943.55
2023-03-15T03:01:06.970Z,943.57
2023-03-15T03:02:06.980Z,943.59
2023-03-15T03:03:06.928Z,943.68
2023-03-15T03:04:06.926Z,943.68
2023-03-15T03:05:06.910Z,943.68
2023-03-15T03:06:06.904Z,943.69
2023-03-15T03:07:06.884Z,943.73
2023-03-15T03:08:06.866Z,943.73
2023-03-15T03:09:06.904Z,943.75
2023-03-15T03:10:06.844Z,943.75
2023-03-15T03:11:06.850Z,943.77
2023-03-15T03:12:06.829Z,943.78
2023-03-15T03:13:06.834Z,943.84
2023-03-15T03:14:06.840Z,943.78
2023-03-15T03:15:06.790Z,943.80
2023-03-15T03:16:06.773Z,943.78
2023-03-15T03:17:06.800Z,943.76
2023-03-15T03:18:06.789Z,943.75
2023-03-15T03:19:06.753Z,943.79
2023-03-15T03:20:06.726Z,943.74
2023-03-15T03:21:06.729Z,943.75
2023-03-15T03:22:06.728Z,943.76
2023-03-15T03:23:06.715Z,943.76
2023-03-15T03:24:06.714Z,943.80
2023-03-15T03:25:06.674Z,943.82
2023-03-15T03:26:06.677Z,943.85
2023-03-15T03:27:06.652Z,943.89
2023-03-15T03:28:06.655Z,943.87
2023-03-15T03:29:06.645Z,943.92
2023-03-15T03:30:06.647Z,943.96
2023-03-15T03:31:06.656Z,943.94
2023-03-15T03:32:06.600Z,943.94
2023-03-15T03:33:06.599Z,943.94
2023-03-15T03:34:06.585Z,943.93
2023-03-15T03:35:06.581Z,943.98
2023-03-15T03:36:06.627Z,944.03
2023-03-15T03:37:06.548Z,944.05
2023-03-15T03:38:06.536Z,944.03
2023-03-15T03:39:06.511Z,944.03
2023-03-15T03:40:06.522Z,944.06
2023-03-15T03:41:06.490Z,944.11
2023-03-15T03:42:06.502Z,944.03
2023-03-15T03:43:06.512Z,944.09
2023-03-15T03:44:06.450Z,944.11
2023-03-15T03:45:06.465Z,944.10
2023-03-15T03:46:06.624Z,944.08
2023-03-15T03:47:06.431Z,944.13
2023-03-15T03:48:06.419Z,944.16
2023-03-15T03:49:06.423Z,944.12
2023-03-15T03:50:06.407Z,944.15
2023-03-15T03:51:06.381Z,944.13
2023-03-15T03:52:06.361Z,944.18
2023-03-15T03:53:06.386Z,944.19
2023-03-15T03:54:06.346Z,944.25
2023-03-15T03:55:06.355Z,944.26
2023-03-15T03:56:06.369Z,944.23
2023-03-15T03:57:06.309Z,944.27
2023-03-15T03:58:06.296Z,944.29
2023-03-15T03:59:06.308Z,944.31
2023-03-15T04:00:06.304Z,944.31
2023-03-15T04:01:06.263Z,944.34
2023-03-15T04:02:06.261Z,944.40
2023-03-15T04:03:06.249Z,944.34
2023-03-15T04:04:06.242Z,944.38
2023-03-15T04:05:06.238Z,944.34
2023-03-15T04:06:06.217Z,944.35
2023-03-15T04:07:06.196Z,944.37
2023-03-15T04:08:06.181Z,944.40
2023-03-15T04:09:06.192Z,944.47
2023-03-15T04:10:06.163Z,944.45
2023-03-15T04:11:06.150Z,944.48
2023-03-15T04:12:06.215Z,944.50
2023-03-15T04:13:06.209Z,944.53
2023-03-15T04:14:06.135Z,944.54
2023-03-15T04:15:06.109Z,944.63
2023-03-15T04:16:06.171Z,944.60
2023-03-15T04:17:06.092Z,944.62
2023-03-15T04:18:06.090Z,944.69
2023-03-15T04:19:06.064Z,944.67
2023-03-15T04:20:06.062Z,944.69
2023-03-15T04:21:06.056Z,944.70
2023-03-15T04:22:06.038Z,944.72
2023-03-15T04:23:06.016Z,944.74
2023-03-15T04:24:06.016Z,944.75
2023-03-15T04:25:06.067Z,944.77
2023-03-15T04:26:06.123Z,944.81
2023-03-15T04:27:05.997Z,944.80
2023-03-15T04:28:05.951Z,944.86
2023-03-15T04:29:05.991Z,944.89
2023-03-15T04:30:05.957Z,944.93
2023-03-15T04:31:05.947Z,944.92
2023-03-15T04:32:05.929Z,944.93
2023-03-15T04:33:05.942Z,944.92
2023-03-15T04:34:05.939Z,944.97
2023-03-15T04:35:05.885Z,944.96
2023-03-15T04:36:05.943Z,944.98
2023-03-15T04:37:05.899Z,944.96
2023-03-15T04:38:05.848Z,944.99
2023-03-15T04:39:05.915Z,944.94
2023-03-15T04:40:05.828Z,944.97
2023-03-15T04:41:05.824Z,944.99
2023-03-15T04:42:05.828Z,944.98
2023-03-15T04:43:05.812Z,945.02
2023-03-15T04:44:05.799Z,944.97
2023-03-15T04:45:05.778Z,944.98
2023-03-15T04:46:05.757Z,944.99
2023-03-15T04:47:05.823Z,944.99
2023-03-15T04:48:05.737Z,944.99
2023-03-15T04:49:05.756Z,945.06
2023-03-15T04:50:05.819Z,945.01
2023-03-15T04:51:05.712Z,945.04
2023-03-15T04:52:05.709Z,945.01
2023-03-15T04:53:05.688Z,945.06
2023-03-15T04:54:05.690Z,945.07
2023-03-15T04:55:05.685Z,945.13
2023-03-15T04:56:05.650Z,945.08
2023-03-15T04:57:05.670Z,945.07
2023-03-15T04:58:05.740Z,945.10
2023-03-15T04:59:05.622Z,945.12
2023-03-15T05:00:05.623Z,945.16
2023-03-15T05:01:05.667Z,945.18
2023-03-15T05:02:05.669Z,945.21
2023-03-15T05:03:05.600Z,945.20
2023-03-15T05:04:05.651Z,945.25
2023-03-15T05:05:05.587Z,945.27
2023-03-15T05:06:05.572Z,945.22
2023-03-15T05:07:05.543Z,945.25
2023-03-15T05:08:05.533Z,945.26
2023-03-15T05:09:05.513Z,945.28
2023-03-15T05:10:05.527Z,945.32
2023-03-15T05:11:05.550Z,945.31
2023-03-15T05:12:05.492Z,945.30
2023-03-15T05:13:05.505Z,945.29
2023-03-15T05:14:05.479Z,945.34
2023-03-15T05:15:05.482Z,945.34
2023-03-15T05:16:05.536Z,945.32
2023-03-15T05:17:05.441Z,945.32
2023-03-15T05:18:05.418Z,945.34
2023-03-15T05:19:05.424Z,945.30
2023-03-15T05:20:05.392Z,945.35
2023-03-15T05:21:05.382Z,945.37
2023-03-15T05:22:05.375Z,945.44
2023-03-15T05:23:05.370Z,945.45
2023-03-15T05:24:05.355Z,945.45
2023-03-15T05:25:05.355Z,945.46
2023-03-15T05:26:05.324Z,945.47
2023-03-15T05:27:05.332Z,945.50
2023-03-15T05:28:05.292Z,945.51
2023-03-15T05:29:05.281Z,945.51
2023-03-15T05:30:05.267Z,945.50
2023-03-15T05:31:05.311Z,945.57
2023-03-15T05:32:05.324Z,945.55
2023-03-15T05:33:05.247Z,945.61
2023-03-15T05:34:05.222Z,945.56
2023-03-15T05:35:05.218Z,945.59
2023-03-15T05:36:05.224Z,945.62
2023-03-15T05:37:05.213Z,945.65
2023-03-15T05:38:05.210Z,945.63
2023-03-15T05:39:05.177Z,945.72
2023-03-15T05:40:05.159Z,945.70
2023-03-15T05:41:05.150Z,945.76
2023-03-15T05:42:05.133Z,945.79
2023-03-15T05:43:05.158Z,945.76
2023-03-15T05:44:05.119Z,945.76
2023-03-15T05:45:05.187Z,945.75
2023-03-15T05:46:05.157Z,945.76
2023-03-15T05:47:05.088Z,945.83
2023-03-15T05:48:05.072Z,945.84
2023-03-15T05:49:05.087Z,945.83
2023-03-15T05:50:05.051Z,945.87
2023-03-15T05:51:05.052Z,945.82
2023-03-15T05:52:05.017Z,945.89
2023-03-15T05:53:05.031Z,945.84
2023-03-15T05:54:05.010Z,945.87
2023-03-15T05:55:04.999Z,945.89
2023-03-15T05:56:04.972Z,945.93
2023-03-15T05:57:04.987Z,945.95
2023-03-15T05:58:04.971Z,945.95
2023-03-15T05:59:04.963Z,945.98
2023-03-15T06:00:04.954Z,945.99
2023-03-15T06:01:04.953Z,946.01
2023-03-15T06:02:04.944Z,946.03
2023-03-15T06:03:05.017Z,945.99
2023-03-15T06:04:04.929Z,946.06
2023-03-15T06:05:04.896Z,946.08
2023-03-15T06:06:04.861Z,946.10
2023-03-15T06:07:04.868Z,946.10
2023-03-15T06:08:04.835Z,946.10
2023-03-15T06:09:04.850Z,946.12
2023-03-15T06:10:04.859Z,946.08
2023-03-15T06:11:04.818Z,946.22
2023-03-15T06:12:04.810Z,946.08
2023-03-15T06:13:04.800Z,946.14
2023-03-15T06:14:04.768Z,946.15
2023-03-15T06:15:04.761Z,946.15
2023-03-15T06:16:04.765Z,946.14
2023-03-15T06:17:04.739Z,946.18
2023-03-15T06:18:04.739Z,946.19
2023-03-15T06:19:04.859Z,946.21
2023-03-15T06:20:04.705Z,946.23
2023-03-15T06:21:04.705Z,946.23
2023-03-15T06:22:04.726Z,946.26
2023-03-15T06:23:04.683Z,946.25
2023-03-15T06:24:04.682Z,946.27
2023-03-15T06:25:04.686Z,946.23
2023-03-15T06:26:04.654Z,946.27
2023-03-15T06:27:04.622Z,946.26
2023-03-15T06:28:04.617Z,946.27
2023-03-15T06:29:04.673Z,946.24
2023-03-15T06:30:04.598Z,946.26
2023-03-15T06:31:04.613Z,946.26
2023-03-15T06:32:05.447Z,946.30
2023-03-15T06:33:04.589Z,946.31
2023-03-15T06:34:04.571Z,946.31
2023-03-15T06:35:04.530Z,946.34
2023-03-15T06:36:04.590Z,946.35
2023-03-15T06:37:04.510Z,946.33
2023-03-15T06:38:04.504Z,946.33
2023-03-15T06:39:04.522Z,946.34
2023-03-15T06:40:04.486Z,946.40
2023-03-15T06:41:04.468Z,946.41
2023-03-15T06:42:04.504Z,946.37
2023-03-15T06:43:04.443Z,946.42
2023-03-15T06:44:04.457Z,946.44
2023-03-15T06:45:04.420Z,946.44
2023-03-15T06:46:04.454Z,946.49
2023-03-15T06:47:04.412Z,946.50
2023-03-15T06:48:04.423Z,946.51
2023-03-15T06:49:04.373Z,946.51
2023-03-15T06:50:04.417Z,946.48
2023-03-15T06:51:04.349Z,946.56
2023-03-15T06:52:04.349Z,946.58
2023-03-15T06:53:04.337Z,946.57
2023-03-15T06:54:04.360Z,946.56
2023-03-15T06:55:04.314Z,946.61
2023-03-15T06:56:04.330Z,946.63
2023-03-15T06:57:04.282Z,946.64
2023-03-15T06:58:04.305Z,946.62
2023-03-15T06:59:04.261Z,946.65
2023-03-15T07:00:04.309Z,946.66
2023-03-15T07:01:04.238Z,946.70
2023-03-15T07:02:04.258Z,946.64
2023-03-15T07:03:04.329Z,946.70
2023-03-15T07:04:04.849Z,946.57
2023-03-15T07:05:04.197Z,946.66
2023-03-15T07:06:04.224Z,946.66
2023-03-15T07:07:04.170Z,946.65
2023-03-15T07:08:04.191Z,946.69
2023-03-15T07:09:04.150Z,946.69
2023-03-15T07:10:04.157Z,946.71
2023-03-15T07:11:04.146Z,946.69
2023-03-15T07:12:04.136Z,946.66
2023-03-15T07:13:04.133Z,946.67
2023-03-15T07:14:04.116Z,946.69
2023-03-15T07:15:04.085Z,946.68
2023-03-15T07:16:04.182Z,946.64
2023-03-15T07:17:04.064Z,946.66
2023-03-15T07:18:04.071Z,946.64
2023-03-15T07:19:04.057Z,946.68
2023-03-15T07:20:04.060Z,946.67
2023-03-15T07:21:04.032Z,946.67
2023-03-15T07:22:04.041Z,946.66
2023-03-15T07:23:04.041Z,946.69
2023-03-15T07:24:03.988Z,946.64
2023-03-15T07:25:03.983Z,946.62
2023-03-15T07:26:03.983Z,946.71
2023-03-15T07:27:03.962Z,946.70
2023-03-15T07:28:03.968Z,946.69
2023-03-15T07:29:03.959Z,946.65
2023-03-15T07:30:03.959Z,946.66
2023-03-15T07:31:03.939Z,946.68
2023-03-15T07:32:03.943Z,946.67
2023-03-15T07:33:04.018Z,946.64
2023-03-15T07:34:03.886Z,946.67
2023-03-15T07:35:03.916Z,946.70
2023-03-15T07:36:03.922Z,946.66
2023-03-15T07:37:03.836Z,946.72
2023-03-15T07:38:03.849Z,946.72
2023-03-15T07:39:03.816Z,946.68
2023-03-15T07:40:03.829Z,946.68
2023-03-15T07:41:03.832Z,946.73
2023-03-15T07:42:03.802Z,946.75
2023-03-15T07:43:03.766Z,946.78
2023-03-15T07:44:03.761Z,946.72
2023-03-15T07:45:03.764Z,946.78
2023-03-15T07:46:03.772Z,946.86
2023-03-15T07:47:03.737Z,946.84
2023-03-15T07:48:03.711Z,946.82
2023-03-15T07:49:03.695Z,946.86
2023-03-15T07:50:03.692Z,946.82
2023-03-15T07:51:03.715Z,946.85
2023-03-15T07:52:03.710Z,946.89
2023-03-15T07:53:03.666Z,946.91
2023-03-15T07:54:03.652Z,946.85
2023-03-15T07:55:03.641Z,946.91
2023-03-15T07:56:03.662Z,946.91
2023-03-15T07:57:03.611Z,946.93
2023-03-15T07:58:03.604Z,946.92
2023-03-15T07:59:03.606Z,946.89
2023-03-15T08:00:03.608Z,946.81
2023-03-15T08:01:03.562Z,946.90
2023-03-15T08:02:03.632Z,946.87
2023-03-15T08:03:03.589Z,946.87
2023-03-15T08:04:03.552Z,946.90
2023-03-15T08:05:03.568Z,946.87
2023-03-15T08:06:03.546Z,946.92
2023-03-15T08:07:03.498Z,946.94
2023-03-15T08:08:03.568Z,946.92
2023-03-15T08:09:03.475Z,946.93
2023-03-15T08:10:03.471Z,946.94
2023-03-15T08:11:04.502Z,947.01
2023-03-15T08:13:21.798Z,947.00
2023-03-15T08:14:21.628Z,947.02
2023-03-15T08:15:21.550Z,947.04
2023-03-15T08:16:21.765Z,947.00
2023-03-15T08:17:21.558Z,947.01
2023-03-15T08:18:21.522Z,947.03
2023-03-15T08:19:21.514Z,947.00
2023-03-15T08:20:21.564Z,947.07
2023-03-15T08:21:21.514Z,947.07
2023-03-15T08:22:21.477Z,947.14
2023-03-15T08:23:21.609Z,947.28
2023-03-15T08:24:21.516Z,947.10
2023-03-15T08:25:21.558Z,947.11
2023-03-15T08:26:21.461Z,947.18
2023-03-15T08:27:21.449Z,947.22
2023-03-15T08:28:21.429Z,947.24
2023-03-15T08:29:21.414Z,947.36
2023-03-15T08:30:21.389Z,947.29
2023-03-15T08:31:21.450Z,947.24
2023-03-15T08:32:21.442Z,947.32
2023-03-15T08:33:21.366Z,947.34
2023-03-15T08:34:21.366Z,947.34
2023-03-15T08:35:21.413Z,947.37
2023-03-15T08:36:21.431Z,947.46
2023-03-15T08:37:21.315Z,947.36
2023-03-15T08:38:21.304Z,947.42
2023-03-15T08:39:21.307Z,947.38
2023-03-15T08:40:21.281Z,947.47
2023-03-15T08:41:21.265Z,947.46
2023-03-15T08:42:21.279Z,947.44
2023-03-15T08:43:21.264Z,947.46
2023-03-15T08:44:21.231Z,947.47
2023-03-15T08:45:21.265Z,947.48
2023-03-15T08:46:21.291Z,947.51
2023-03-15T08:47:21.189Z,947.47
2023-03-15T08:48:21.218Z,947.56
2023-03-15T08:49:21.196Z,947.56
2023-03-15T08:50:21.186Z,947.54
2023-03-15T08:51:21.168Z,947.58
2023-03-15T08:52:21.160Z,947.56
2023-03-15T08:53:21.125Z,947.59
2023-03-15T08:54:21.137Z,947.58
2023-03-15T08:55:21.125Z,947.56
2023-03-15T08:56:21.109Z,947.63
2023-03-15T08:57:21.087Z,947.56
2023-03-15T08:58:21.122Z,947.59
2023-03-15T08:59:31.469Z,947.62
2023-03-15T09:00:22.066Z,947.63
2023-03-15T09:01:21.032Z,947.58
2023-03-15T09:02:21.205Z,947.58
2023-03-15T09:03:21.031Z,947.60
2023-03-15T09:04:21.102Z,947.57
2023-03-15T09:05:21.099Z,947.53
2023-03-15T09:06:20.998Z,947.58
2023-03-15T09:07:20.978Z,947.65
2023-03-15T09:08:20.999Z,947.65
2023-03-15T09:09:20.955Z,947.62
2023-03-15T09:10:20.969Z,947.62
2023-03-15T09:11:20.941Z,947.58
2023-03-15T09:12:20.935Z,947.64
2023-03-15T09:13:20.909Z,947.73
2023-03-15T09:14:20.894Z,947.67
2023-03-15T09:15:20.895Z,947.68
2023-03-15T09:16:20.902Z,947.69
2023-03-15T09:17:20.856Z,947.69
2023-03-15T09:18:20.879Z,947.74
2023-03-15T09:19:20.851Z,947.80
2023-03-15T09:20:20.883Z,947.77
2023-03-15T09:21:20.829Z,947.70
2023-03-15T09:22:29.086Z,947.78
2023-03-15T09:23:21.792Z,947.77
2023-03-15T09:24:20.802Z,947.77
2023-03-15T09:25:20.795Z,947.75
2023-03-15T09:26:20.765Z,947.78
2023-03-15T09:27:20.744Z,947.80
2023-03-15T09:28:20.782Z,947.86
2023-03-15T09:29:20.734Z,947.84
2023-03-15T09:30:20.882Z,947.84
2023-03-15T09:31:20.750Z,947.81
2023-03-15T09:32:20.794Z,947.83
2023-03-15T09:33:20.687Z,947.81
2023-03-15T09:34:21.874Z,947.88
2023-03-15T09:35:20.682Z,947.87
2023-03-15T09:36:20.668Z,947.89
2023-03-15T09:37:20.882Z,947.88
2023-03-15T09:38:20.652Z,947.91
2023-03-15T09:39:20.636Z,947.91
2023-03-15T09:40:20.618Z,947.92
2023-03-15T09:41:20.599Z,947.90
2023-03-15T09:42:20.590Z,947.91
2023-03-15T09:43:20.618Z,947.92
2023-03-15T09:44:20.598Z,947.92
2023-03-15T09:45:20.564Z,947.95
2023-03-15T09:46:21.379Z,947.95
2023-03-15T09:47:20.552Z,947.95
2023-03-15T09:48:20.523Z,947.96
2023-03-15T09:49:20.542Z,948.00
2023-03-15T09:50:20.507Z,948.05
2023-03-15T09:51:20.483Z,948.01
2023-03-15T09:52:20.478Z,948.01
2023-03-15T09:53:20.508Z,948.05
2023-03-15T09:54:20.498Z,948.05
2023-03-15T09:55:20.457Z,948.03
2023-03-15T09:56:20.436Z,948.07
2023-03-15T09:57:20.433Z,948.08
2023-03-15T09:58:20.425Z,948.07
2023-03-15T09:59:23.151Z,948.13
2023-03-15T10:00:20.390Z,948.09
2023-03-15T10:01:20.424Z,948.11
2023-03-15T10:02:20.391Z,948.02
2023-03-15T10:03:20.387Z,948.06
2023-03-15T10:04:20.344Z,948.08
2023-03-15T10:05:20.326Z,948.03
2023-03-15T10:06:20.344Z,948.04
2023-03-15T10:07:20.322Z,948.04
2023-03-15T10:08:20.303Z,948.02
2023-03-15T10:09:20.339Z,948.07
2023-03-15T10:10:20.284Z,948.08
2023-03-15T10:11:20.284Z,948.11
2023-03-15T10:12:20.262Z,948.11
2023-03-15T10:13:20.309Z,948.11
2023-03-15T10:14:20.263Z,948.09
2023-03-15T10:15:20.239Z,948.07
2023-03-15T10:16:20.232Z,948.08
2023-03-15T10:17:27.913Z,948.19
2023-03-15T10:18:20.217Z,948.13
2023-03-15T10:19:20.182Z,948.11
2023-03-15T10:20:29.058Z,948.06
2023-03-15T10:21:27.833Z,948.06
2023-03-15T10:22:20.161Z,948.05
2023-03-15T10:23:29.092Z,948.05
2023-03-15T10:24:20.174Z,948.14
2023-03-15T10:25:20.126Z,948.07
2023-03-15T10:26:29.108Z,948.08
2023-03-15T10:27:20.100Z,948.03
2023-03-15T10:28:27.763Z,948.09
2023-03-15T10:29:20.066Z,948.07
2023-03-15T10:30:20.208Z,948.02
2023-03-15T10:31:22.630Z,948.02
2023-03-15T10:32:21.048Z,948.01
2023-03-15T10:33:20.033Z,948.03
2023-03-15T10:34:20.015Z,948.04
2023-03-15T10:35:19.996Z,948.06
2023-03-15T10:36:20.021Z,948.09
2023-03-15T10:37:19.992Z,948.05
2023-03-15T10:38:20.008Z,948.10
2023-03-15T10:39:19.977Z,948.12
2023-03-15T10:40:20.028Z,948.24
2023-03-15T10:41:28.545Z,948.12
2023-03-15T10:42:20.928Z,948.12
2023-03-15T10:43:19.908Z,948.14
2023-03-15T10:44:19.904Z,948.06
2023-03-15T10:45:19.903Z,948.09
2023-03-15T10:46:19.919Z,948.05
2023-03-15T10:47:23.943Z,948.16
2023-03-15T10:48:19.888Z,948.15
2023-03-15T10:49:19.859Z,948.11
2023-03-15T10:50:19.935Z,948.13
2023-03-15T10:51:19.816Z,948.16
2023-03-15T10:52:19.803Z,948.15
2023-03-15T10:53:19.820Z,948.13
2023-03-15T10:54:19.783Z,948.16
2023-03-15T10:55:19.780Z,948.27
2023-03-15T10:56:19.773Z,948.11
2023-03-15T10:57:19.791Z,948.15
2023-03-15T10:58:19.743Z,948.17
2023-03-15T10:59:19.727Z,948.14
2023-03-15T11:00:19.787Z,948.14
2023-03-15T11:01:19.726Z,948.17
2023-03-15T11:02:19.727Z,948.16
2023-03-15T11:03:19.689Z,948.18
2023-03-15T11:04:19.670Z,948.20
2023-03-15T11:05:19.651Z,948.17
2023-03-15T11:06:19.656Z,948.21
2023-03-15T11:07:19.649Z,948.22
2023-03-15T11:08:19.630Z,948.23
2023-03-15T11:09:19.605Z,948.24
2023-03-15T11:10:19.657Z,948.23
2023-03-15T11:11:19.607Z,948.21
2023-03-15T11:12:19.665Z,948.21
2023-03-15T11:13:19.713Z,948.20
2023-03-15T11:14:19.564Z,948.30
2023-03-15T11:15:19.560Z,948.24
2023-03-15T11:16:19.656Z,948.23
2023-03-15T11:17:19.514Z,948.22
2023-03-15T11:18:19.535Z,948.22
2023-03-15T11:19:19.500Z,948.15
2023-03-15T11:20:19.561Z,948.16
2023-03-15T11:21:19.505Z,948.24
2023-03-15T11:22:19.457Z,948.20
2023-03-15T11:23:19.458Z,948.21
2023-03-15T11:24:19.527Z,948.22
2023-03-15T11:25:19.431Z,948.23
2023-03-15T11:26:31.441Z,948.17
2023-03-15T11:27:20.408Z,948.17
2023-03-15T11:28:19.394Z,948.18
2023-03-15T11:29:19.421Z,948.17
2023-03-15T11:30:19.397Z,948.15
2023-03-15T11:31:19.375Z,948.28
2023-03-15T11:32:19.356Z,948.24
2023-03-15T11:33:19.366Z,948.17
2023-03-15T11:34:19.356Z,948.20
2023-03-15T11:35:19.332Z,948.19
2023-03-15T11:36:19.321Z,948.21
2023-03-15T11:37:19.309Z,948.21
2023-03-15T11:38:19.301Z,948.21
2023-03-15T11:39:19.278Z,948.23
2023-03-15T11:40:19.471Z,948.29
2023-03-15T11:41:19.257Z,948.26
2023-03-15T11:42:19.249Z,948.26
2023-03-15T11:43:19.241Z,948.22
2023-03-15T11:44:19.245Z,948.23
2023-03-15T11:45:19.235Z,948.26
2023-03-15T11:46:19.213Z,948.28
2023-03-15T11:47:19.186Z,948.13
2023-03-15T11:48:19.172Z,948.17
2023-03-15T11:49:19.201Z,948.25
2023-03-15T11:50:19.159Z,948.16
2023-03-15T11:51:19.167Z,948.22
2023-03-15T11:52:19.131Z,948.21
2023-03-15T11:53:19.127Z,948.12
2023-03-15T11:54:19.107Z,948.12
2023-03-15T11:55:19.116Z,948.12
2023-03-15T11:56:19.099Z,948.14
2023-03-15T11:57:19.078Z,948.14
2023-03-15T11:58:19.084Z,948.12
2023-03-15T11:59:19.059Z,948.08
2023-03-15T12:00:19.115Z,948.09
2023-03-15T12:01:19.071Z,948.17
2023-03-15T12:02:21.796Z,948.01
2023-03-15T12:03:19.088Z,948.08
2023-03-15T12:04:18.992Z,948.03
2023-03-15T12:05:18.987Z,948.04
2023-03-15T12:06:19.004Z,948.06
2023-03-15T12:07:19.080Z,948.06
2023-03-15T12:08:21.697Z,948.05
2023-03-15T12:09:18.947Z,948.13
2023-03-15T12:10:18.944Z,948.15
2023-03-15T12:11:18.942Z,948.11
2023-03-15T12:12:18.904Z,948.07
2023-03-15T12:13:18.910Z,948.11
2023-03-15T12:14:18.885Z,948.08
2023-03-15T12:15:18.943Z,948.05
2023-03-15T12:16:18.870Z,948.13
2023-03-15T12:17:18.883Z,948.12
2023-03-15T12:18:18.876Z,948.12
2023-03-15T12:19:18.846Z,948.08
2023-03-15T12:20:18.822Z,948.09
2023-03-15T12:21:18.811Z,948.14
2023-03-15T12:22:18.797Z,948.11
2023-03-15T12:23:18.790Z,948.10
2023-03-15T12:24:18.829Z,948.13
2023-03-15T12:25:18.777Z,948.09
2023-03-15T12:26:18.752Z,948.18
2023-03-15T12:27:18.746Z,948.18
2023-03-15T12:28:18.748Z,948.12
2023-03-15T12:29:18.720Z,948.10